sensor_id;sensor_type;location;lat;lon;timestamp;P1;durP1;ratioP1;P2;durP2;ratioP2
52838;SDS011;39219;53.678;9.856;2023-11-21T00:01:34;34.90;;;14.80;;
52838;SDS011;39219;53.678;9.856;2023-11-21T00:04:01;39.70;;;16.80;;
52838;SDS011;39219;53.678;9.856;2023-11-21T00:06:27;36.60;;;15.75;;
52838;SDS011;39219;53.678;9.856;2023-11-21T00:08:55;35.35;;;14.75;;
52838;SDS011;39219;53.678;9.856;2023-11-21T00:11:22;38.63;;;15.95;;
52838;SDS011;39219;53.678;9.856;2023-11-21T00:13:50;34.63;;;15.57;;
52838;SDS011;39219;53.678;9.856;2023-11-21T00:16:16;36.85;;;15.15;;
52838;SDS011;39219;53.678;9.856;2023-11-21T00:18:43;35.55;;;14.73;;
52838;SDS011;39219;53.678;9.856;2023-11-21T00:21:11;34.97;;;14.85;;
52838;SDS011;39219;53.678;9.856;2023-11-21T00:23:37;31.23;;;13.90;;
52838;SDS011;39219;53.678;9.856;2023-11-21T00:26:04;30.67;;;13.40;;
52838;SDS011;39219;53.678;9.856;2023-11-21T00:28:32;30.00;;;13.27;;
52838;SDS011;39219;53.678;9.856;2023-11-21T00:30:58;29.73;;;13.93;;
52838;SDS011;39219;53.678;9.856;2023-11-21T00:33:24;32.53;;;13.52;;
52838;SDS011;39219;53.678;9.856;2023-11-21T00:35:51;29.35;;;13.73;;
52838;SDS011;39219;53.678;9.856;2023-11-21T00:38:17;29.02;;;12.82;;
52838;SDS011;39219;53.678;9.856;2023-11-21T00:40:44;29.30;;;12.90;;
52838;SDS011;39219;53.678;9.856;2023-11-21T00:43:11;33.03;;;13.38;;
52838;SDS011;39219;53.678;9.856;2023-11-21T00:45:38;28.67;;;12.55;;
52838;SDS011;39219;53.678;9.856;2023-11-21T00:48:05;26.88;;;12.13;;
52838;SDS011;39219;53.678;9.856;2023-11-21T00:50:33;26.13;;;12.57;;
52838;SDS011;39219;53.678;9.856;2023-11-21T00:52:59;25.10;;;11.98;;
52838;SDS011;39219;53.678;9.856;2023-11-21T00:55:27;27.20;;;11.85;;
52838;SDS011;39219;53.678;9.856;2023-11-21T00:57:55;25.05;;;11.77;;
52838;SDS011;39219;53.678;9.856;2023-11-21T01:00:21;26.70;;;12.48;;
52838;SDS011;39219;53.678;9.856;2023-11-21T01:02:49;25.10;;;11.50;;
52838;SDS011;39219;53.678;9.856;2023-11-21T01:05:16;25.95;;;12.23;;
52838;SDS011;39219;53.678;9.856;2023-11-21T01:07:42;28.67;;;12.15;;
52838;SDS011;39219;53.678;9.856;2023-11-21T01:10:09;27.92;;;12.30;;
52838;SDS011;39219;53.678;9.856;2023-11-21T01:12:35;29.60;;;13.50;;
52838;SDS011;39219;53.678;9.856;2023-11-21T01:15:02;28.85;;;13.20;;
52838;SDS011;39219;53.678;9.856;2023-11-21T01:17:28;33.30;;;14.32;;
52838;SDS011;39219;53.678;9.856;2023-11-21T01:19:56;32.75;;;14.82;;
52838;SDS011;39219;53.678;9.856;2023-11-21T01:22:22;32.75;;;14.68;;
52838;SDS011;39219;53.678;9.856;2023-11-21T01:24:51;33.25;;;14.80;;
52838;SDS011;39219;53.678;9.856;2023-11-21T01:27:17;31.85;;;14.02;;
52838;SDS011;39219;53.678;9.856;2023-11-21T01:29:43;32.97;;;13.75;;
52838;SDS011;39219;53.678;9.856;2023-11-21T01:32:09;33.15;;;14.20;;
52838;SDS011;39219;53.678;9.856;2023-11-21T01:34:36;30.00;;;13.88;;
52838;SDS011;39219;53.678;9.856;2023-11-21T01:37:05;29.80;;;13.65;;
52838;SDS011;39219;53.678;9.856;2023-11-21T01:39:31;29.08;;;12.80;;
52838;SDS011;39219;53.678;9.856;2023-11-21T01:41:58;30.33;;;13.38;;
52838;SDS011;39219;53.678;9.856;2023-11-21T01:44:24;27.83;;;12.40;;
52838;SDS011;39219;53.678;9.856;2023-11-21T01:46:50;26.35;;;11.80;;
52838;SDS011;39219;53.678;9.856;2023-11-21T01:49:17;24.02;;;11.85;;
52838;SDS011;39219;53.678;9.856;2023-11-21T01:51:46;23.48;;;11.43;;
52838;SDS011;39219;53.678;9.856;2023-11-21T01:54:15;19.92;;;10.95;;
52838;SDS011;39219;53.678;9.856;2023-11-21T01:56:42;18.23;;;10.43;;
52838;SDS011;39219;53.678;9.856;2023-11-21T01:59:08;20.20;;;9.95;;
52838;SDS011;39219;53.678;9.856;2023-11-21T02:01:35;21.00;;;10.10;;
52838;SDS011;39219;53.678;9.856;2023-11-21T02:04:01;21.23;;;10.02;;
52838;SDS011;39219;53.678;9.856;2023-11-21T02:06:27;21.23;;;10.35;;
52838;SDS011;39219;53.678;9.856;2023-11-21T02:08:56;18.65;;;9.50;;
52838;SDS011;39219;53.678;9.856;2023-11-21T02:11:24;18.65;;;9.02;;
52838;SDS011;39219;53.678;9.856;2023-11-21T02:13:50;17.38;;;8.63;;
52838;SDS011;39219;53.678;9.856;2023-11-21T02:16:19;18.30;;;9.13;;
52838;SDS011;39219;53.678;9.856;2023-11-21T02:18:45;17.50;;;9.13;;
52838;SDS011;39219;53.678;9.856;2023-11-21T02:21:13;17.42;;;8.25;;
52838;SDS011;39219;53.678;9.856;2023-11-21T02:23:41;17.80;;;8.40;;
52838;SDS011;39219;53.678;9.856;2023-11-21T02:26:09;15.68;;;7.55;;
52838;SDS011;39219;53.678;9.856;2023-11-21T02:28:35;15.75;;;8.25;;
52838;SDS011;39219;53.678;9.856;2023-11-21T02:31:03;16.92;;;7.80;;
52838;SDS011;39219;53.678;9.856;2023-11-21T02:33:30;15.10;;;7.55;;
52838;SDS011;39219;53.678;9.856;2023-11-21T02:35:59;14.30;;;7.35;;
52838;SDS011;39219;53.678;9.856;2023-11-21T02:38:25;14.48;;;7.88;;
52838;SDS011;39219;53.678;9.856;2023-11-21T02:40:52;13.40;;;7.03;;
52838;SDS011;39219;53.678;9.856;2023-11-21T02:43:19;13.57;;;7.43;;
52838;SDS011;39219;53.678;9.856;2023-11-21T02:45:45;14.85;;;7.53;;
52838;SDS011;39219;53.678;9.856;2023-11-21T02:48:11;15.38;;;8.00;;
52838;SDS011;39219;53.678;9.856;2023-11-21T02:50:37;13.52;;;7.03;;
52838;SDS011;39219;53.678;9.856;2023-11-21T02:53:04;14.63;;;7.50;;
52838;SDS011;39219;53.678;9.856;2023-11-21T02:55:30;13.88;;;6.90;;
52838;SDS011;39219;53.678;9.856;2023-11-21T02:58:01;13.50;;;7.18;;
52838;SDS011;39219;53.678;9.856;2023-11-21T03:00:27;15.05;;;7.43;;
52838;SDS011;39219;53.678;9.856;2023-11-21T03:02:54;13.48;;;7.15;;
52838;SDS011;39219;53.678;9.856;2023-11-21T03:05:20;14.43;;;7.65;;
52838;SDS011;39219;53.678;9.856;2023-11-21T03:07:47;12.63;;;7.20;;
52838;SDS011;39219;53.678;9.856;2023-11-21T03:10:13;15.82;;;7.35;;
52838;SDS011;39219;53.678;9.856;2023-11-21T03:12:40;17.40;;;7.80;;
52838;SDS011;39219;53.678;9.856;2023-11-21T03:15:08;13.93;;;7.40;;
52838;SDS011;39219;53.678;9.856;2023-11-21T03:17:34;15.10;;;7.78;;
52838;SDS011;39219;53.678;9.856;2023-11-21T03:20:01;14.57;;;7.93;;
52838;SDS011;39219;53.678;9.856;2023-11-21T03:22:29;14.98;;;7.60;;
52838;SDS011;39219;53.678;9.856;2023-11-21T03:24:55;15.68;;;7.63;;
52838;SDS011;39219;53.678;9.856;2023-11-21T03:27:21;15.35;;;8.18;;
52838;SDS011;39219;53.678;9.856;2023-11-21T03:29:48;16.15;;;8.73;;
52838;SDS011;39219;53.678;9.856;2023-11-21T03:32:16;17.27;;;8.05;;
52838;SDS011;39219;53.678;9.856;2023-11-21T03:34:52;16.20;;;8.30;;
52838;SDS011;39219;53.678;9.856;2023-11-21T03:37:19;16.63;;;8.07;;
52838;SDS011;39219;53.678;9.856;2023-11-21T03:39:45;17.58;;;8.75;;
52838;SDS011;39219;53.678;9.856;2023-11-21T03:42:12;15.93;;;8.77;;
52838;SDS011;39219;53.678;9.856;2023-11-21T03:44:38;15.85;;;8.82;;
52838;SDS011;39219;53.678;9.856;2023-11-21T03:47:04;16.25;;;8.35;;
52838;SDS011;39219;53.678;9.856;2023-11-21T03:49:32;16.48;;;9.05;;
52838;SDS011;39219;53.678;9.856;2023-11-21T03:51:58;15.30;;;8.65;;
52838;SDS011;39219;53.678;9.856;2023-11-21T03:54:24;16.20;;;8.25;;
52838;SDS011;39219;53.678;9.856;2023-11-21T03:56:51;16.00;;;8.23;;
52838;SDS011;39219;53.678;9.856;2023-11-21T03:59:17;17.00;;;8.60;;
52838;SDS011;39219;53.678;9.856;2023-11-21T04:01:43;18.35;;;8.52;;
52838;SDS011;39219;53.678;9.856;2023-11-21T04:04:10;14.63;;;8.13;;
52838;SDS011;39219;53.678;9.856;2023-11-21T04:06:37;16.08;;;8.35;;
52838;SDS011;39219;53.678;9.856;2023-11-21T04:09:04;14.85;;;8.40;;
52838;SDS011;39219;53.678;9.856;2023-11-21T04:11:30;15.05;;;8.25;;
52838;SDS011;39219;53.678;9.856;2023-11-21T04:13:56;15.07;;;8.05;;
52838;SDS011;39219;53.678;9.856;2023-11-21T04:16:23;15.07;;;7.82;;
52838;SDS011;39219;53.678;9.856;2023-11-21T04:18:49;15.50;;;8.32;;
52838;SDS011;39219;53.678;9.856;2023-11-21T04:21:15;15.43;;;7.93;;
52838;SDS011;39219;53.678;9.856;2023-11-21T04:23:43;15.90;;;8.05;;
52838;SDS011;39219;53.678;9.856;2023-11-21T04:26:09;16.25;;;7.82;;
52838;SDS011;39219;53.678;9.856;2023-11-21T04:28:35;15.02;;;8.20;;
52838;SDS011;39219;53.678;9.856;2023-11-21T04:31:02;16.10;;;8.15;;
52838;SDS011;39219;53.678;9.856;2023-11-21T04:33:28;14.02;;;7.60;;
52838;SDS011;39219;53.678;9.856;2023-11-21T04:35:55;14.63;;;7.85;;
52838;SDS011;39219;53.678;9.856;2023-11-21T04:38:21;14.32;;;7.75;;
52838;SDS011;39219;53.678;9.856;2023-11-21T04:40:49;14.05;;;7.13;;
52838;SDS011;39219;53.678;9.856;2023-11-21T04:43:15;15.50;;;8.23;;
52838;SDS011;39219;53.678;9.856;2023-11-21T04:45:42;12.65;;;7.20;;
52838;SDS011;39219;53.678;9.856;2023-11-21T04:48:08;15.18;;;7.40;;
52838;SDS011;39219;53.678;9.856;2023-11-21T04:50:35;14.32;;;7.63;;
52838;SDS011;39219;53.678;9.856;2023-11-21T04:53:01;13.75;;;7.63;;
52838;SDS011;39219;53.678;9.856;2023-11-21T04:55:27;14.98;;;7.78;;
52838;SDS011;39219;53.678;9.856;2023-11-21T04:57:55;14.65;;;7.95;;
52838;SDS011;39219;53.678;9.856;2023-11-21T05:00:21;14.52;;;8.00;;
52838;SDS011;39219;53.678;9.856;2023-11-21T05:02:48;13.98;;;7.80;;
52838;SDS011;39219;53.678;9.856;2023-11-21T05:05:14;15.10;;;7.75;;
52838;SDS011;39219;53.678;9.856;2023-11-21T05:07:40;14.02;;;7.70;;
52838;SDS011;39219;53.678;9.856;2023-11-21T05:10:08;14.88;;;7.38;;
52838;SDS011;39219;53.678;9.856;2023-11-21T05:12:36;15.15;;;8.05;;
52838;SDS011;39219;53.678;9.856;2023-11-21T05:15:05;15.52;;;7.30;;
52838;SDS011;39219;53.678;9.856;2023-11-21T05:17:34;13.50;;;7.03;;
52838;SDS011;39219;53.678;9.856;2023-11-21T05:20:01;13.10;;;7.25;;
52838;SDS011;39219;53.678;9.856;2023-11-21T05:22:29;14.68;;;7.80;;
52838;SDS011;39219;53.678;9.856;2023-11-21T05:24:55;15.38;;;7.63;;
52838;SDS011;39219;53.678;9.856;2023-11-21T05:27:21;14.55;;;7.95;;
52838;SDS011;39219;53.678;9.856;2023-11-21T05:29:48;13.55;;;7.82;;
52838;SDS011;39219;53.678;9.856;2023-11-21T05:32:15;14.77;;;7.75;;
52838;SDS011;39219;53.678;9.856;2023-11-21T05:34:42;14.38;;;7.80;;
52838;SDS011;39219;53.678;9.856;2023-11-21T05:37:08;14.10;;;7.68;;
52838;SDS011;39219;53.678;9.856;2023-11-21T05:39:35;14.15;;;7.68;;
52838;SDS011;39219;53.678;9.856;2023-11-21T05:42:01;15.93;;;8.32;;
52838;SDS011;39219;53.678;9.856;2023-11-21T05:44:28;14.90;;;8.18;;
52838;SDS011;39219;53.678;9.856;2023-11-21T05:46:55;14.63;;;7.50;;
52838;SDS011;39219;53.678;9.856;2023-11-21T05:49:25;14.75;;;7.70;;
52838;SDS011;39219;53.678;9.856;2023-11-21T05:51:52;12.65;;;7.40;;
52838;SDS011;39219;53.678;9.856;2023-11-21T05:54:19;15.63;;;8.48;;
52838;SDS011;39219;53.678;9.856;2023-11-21T05:56:45;15.43;;;8.38;;
52838;SDS011;39219;53.678;9.856;2023-11-21T05:59:12;15.00;;;8.15;;
52838;SDS011;39219;53.678;9.856;2023-11-21T06:01:38;15.73;;;7.97;;
52838;SDS011;39219;53.678;9.856;2023-11-21T06:04:04;14.43;;;8.02;;
52838;SDS011;39219;53.678;9.856;2023-11-21T06:06:34;13.73;;;8.05;;
52838;SDS011;39219;53.678;9.856;2023-11-21T06:09:00;13.73;;;7.78;;
52838;SDS011;39219;53.678;9.856;2023-11-21T06:11:27;13.50;;;7.60;;
52838;SDS011;39219;53.678;9.856;2023-11-21T06:13:54;13.45;;;7.45;;
52838;SDS011;39219;53.678;9.856;2023-11-21T06:16:20;12.85;;;7.20;;
52838;SDS011;39219;53.678;9.856;2023-11-21T06:18:46;13.95;;;7.13;;
52838;SDS011;39219;53.678;9.856;2023-11-21T06:21:13;12.48;;;6.65;;
52838;SDS011;39219;53.678;9.856;2023-11-21T06:23:43;13.68;;;6.63;;
52838;SDS011;39219;53.678;9.856;2023-11-21T06:26:09;14.50;;;7.07;;
52838;SDS011;39219;53.678;9.856;2023-11-21T06:28:35;13.90;;;6.63;;
52838;SDS011;39219;53.678;9.856;2023-11-21T06:31:02;13.50;;;7.18;;
52838;SDS011;39219;53.678;9.856;2023-11-21T06:33:30;14.05;;;7.00;;
52838;SDS011;39219;53.678;9.856;2023-11-21T06:35:56;13.18;;;6.75;;
52838;SDS011;39219;53.678;9.856;2023-11-21T06:38:22;14.00;;;7.07;;
52838;SDS011;39219;53.678;9.856;2023-11-21T06:40:50;15.52;;;8.48;;
52838;SDS011;39219;53.678;9.856;2023-11-21T06:43:16;16.73;;;8.88;;
52838;SDS011;39219;53.678;9.856;2023-11-21T06:45:43;16.50;;;9.57;;
52838;SDS011;39219;53.678;9.856;2023-11-21T06:48:09;15.45;;;8.70;;
52838;SDS011;39219;53.678;9.856;2023-11-21T06:50:35;14.95;;;8.43;;
52838;SDS011;39219;53.678;9.856;2023-11-21T06:53:01;13.57;;;7.88;;
52838;SDS011;39219;53.678;9.856;2023-11-21T06:55:31;14.75;;;7.82;;
52838;SDS011;39219;53.678;9.856;2023-11-21T06:57:59;15.63;;;9.10;;
52838;SDS011;39219;53.678;9.856;2023-11-21T07:00:26;16.90;;;7.97;;
52838;SDS011;39219;53.678;9.856;2023-11-21T07:02:53;15.82;;;8.52;;
52838;SDS011;39219;53.678;9.856;2023-11-21T07:05:19;14.85;;;7.97;;
52838;SDS011;39219;53.678;9.856;2023-11-21T07:07:46;15.85;;;8.27;;
52838;SDS011;39219;53.678;9.856;2023-11-21T07:10:13;12.82;;;7.55;;
52838;SDS011;39219;53.678;9.856;2023-11-21T07:12:39;15.23;;;8.10;;
52838;SDS011;39219;53.678;9.856;2023-11-21T07:15:08;14.90;;;7.70;;
52838;SDS011;39219;53.678;9.856;2023-11-21T07:17:35;14.20;;;7.78;;
52838;SDS011;39219;53.678;9.856;2023-11-21T07:20:02;17.17;;;8.73;;
52838;SDS011;39219;53.678;9.856;2023-11-21T07:22:28;14.98;;;8.23;;
52838;SDS011;39219;53.678;9.856;2023-11-21T07:24:55;17.23;;;8.32;;
52838;SDS011;39219;53.678;9.856;2023-11-21T07:27:21;16.35;;;8.48;;
52838;SDS011;39219;53.678;9.856;2023-11-21T07:29:48;17.98;;;8.73;;
52838;SDS011;39219;53.678;9.856;2023-11-21T07:32:16;17.33;;;8.63;;
52838;SDS011;39219;53.678;9.856;2023-11-21T07:34:42;15.65;;;8.55;;
52838;SDS011;39219;53.678;9.856;2023-11-21T07:37:08;15.30;;;8.70;;
52838;SDS011;39219;53.678;9.856;2023-11-21T07:39:35;17.08;;;8.95;;
52838;SDS011;39219;53.678;9.856;2023-11-21T07:42:01;17.88;;;8.40;;
52838;SDS011;39219;53.678;9.856;2023-11-21T07:44:28;15.30;;;8.40;;
52838;SDS011;39219;53.678;9.856;2023-11-21T07:46:54;17.17;;;8.43;;
52838;SDS011;39219;53.678;9.856;2023-11-21T07:49:23;16.25;;;8.00;;
52838;SDS011;39219;53.678;9.856;2023-11-21T07:51:50;19.00;;;8.63;;
52838;SDS011;39219;53.678;9.856;2023-11-21T07:54:16;15.70;;;8.45;;
52838;SDS011;39219;53.678;9.856;2023-11-21T07:56:42;17.23;;;8.38;;
52838;SDS011;39219;53.678;9.856;2023-11-21T07:59:09;17.58;;;8.25;;
52838;SDS011;39219;53.678;9.856;2023-11-21T08:01:35;13.98;;;7.50;;
52838;SDS011;39219;53.678;9.856;2023-11-21T08:04:02;15.93;;;7.90;;
52838;SDS011;39219;53.678;9.856;2023-11-21T08:06:30;15.15;;;7.93;;
52838;SDS011;39219;53.678;9.856;2023-11-21T08:08:57;16.98;;;8.00;;
52838;SDS011;39219;53.678;9.856;2023-11-21T08:11:23;14.68;;;7.47;;
52838;SDS011;39219;53.678;9.856;2023-11-21T08:13:49;15.45;;;7.65;;
52838;SDS011;39219;53.678;9.856;2023-11-21T08:16:16;14.32;;;7.22;;
52838;SDS011;39219;53.678;9.856;2023-11-21T08:18:42;15.93;;;7.25;;
52838;SDS011;39219;53.678;9.856;2023-11-21T08:21:08;13.60;;;6.88;;
52838;SDS011;39219;53.678;9.856;2023-11-21T08:23:38;15.80;;;6.47;;
52838;SDS011;39219;53.678;9.856;2023-11-21T08:26:05;11.68;;;6.45;;
52838;SDS011;39219;53.678;9.856;2023-11-21T08:28:31;11.57;;;6.05;;
52838;SDS011;39219;53.678;9.856;2023-11-21T08:30:57;12.43;;;6.03;;
52838;SDS011;39219;53.678;9.856;2023-11-21T08:33:24;10.50;;;5.82;;
52838;SDS011;39219;53.678;9.856;2023-11-21T08:35:50;10.50;;;5.72;;
52838;SDS011;39219;53.678;9.856;2023-11-21T08:38:16;13.05;;;6.05;;
52838;SDS011;39219;53.678;9.856;2023-11-21T08:40:44;12.57;;;5.85;;
52838;SDS011;39219;53.678;9.856;2023-11-21T08:43:10;12.13;;;6.10;;
52838;SDS011;39219;53.678;9.856;2023-11-21T08:45:37;12.85;;;6.10;;
52838;SDS011;39219;53.678;9.856;2023-11-21T08:48:03;11.38;;;5.90;;
52838;SDS011;39219;53.678;9.856;2023-11-21T08:50:30;13.40;;;6.35;;
52838;SDS011;39219;53.678;9.856;2023-11-21T08:52:56;11.57;;;6.30;;
52838;SDS011;39219;53.678;9.856;2023-11-21T08:55:23;10.75;;;5.55;;
52838;SDS011;39219;53.678;9.856;2023-11-21T08:57:50;10.88;;;5.50;;
52838;SDS011;39219;53.678;9.856;2023-11-21T09:00:17;12.45;;;6.07;;
52838;SDS011;39219;53.678;9.856;2023-11-21T09:02:43;11.00;;;5.70;;
52838;SDS011;39219;53.678;9.856;2023-11-21T09:05:10;10.40;;;5.38;;
52838;SDS011;39219;53.678;9.856;2023-11-21T09:07:36;9.23;;;5.05;;
52838;SDS011;39219;53.678;9.856;2023-11-21T09:10:02;10.55;;;5.40;;
52838;SDS011;39219;53.678;9.856;2023-11-21T09:12:29;11.88;;;5.55;;
52838;SDS011;39219;53.678;9.856;2023-11-21T09:14:58;12.48;;;5.40;;
52838;SDS011;39219;53.678;9.856;2023-11-21T09:17:25;10.48;;;4.88;;
52838;SDS011;39219;53.678;9.856;2023-11-21T09:19:51;10.77;;;4.88;;
52838;SDS011;39219;53.678;9.856;2023-11-21T09:22:17;10.13;;;5.32;;
52838;SDS011;39219;53.678;9.856;2023-11-21T09:24:44;10.15;;;4.85;;
52838;SDS011;39219;53.678;9.856;2023-11-21T09:27:10;10.43;;;4.75;;
52838;SDS011;39219;53.678;9.856;2023-11-21T09:29:36;9.98;;;4.70;;
52838;SDS011;39219;53.678;9.856;2023-11-21T09:32:05;8.85;;;4.70;;
52838;SDS011;39219;53.678;9.856;2023-11-21T09:34:31;10.05;;;4.38;;
52838;SDS011;39219;53.678;9.856;2023-11-21T09:36:58;9.07;;;4.70;;
52838;SDS011;39219;53.678;9.856;2023-11-21T09:39:24;9.52;;;4.68;;
52838;SDS011;39219;53.678;9.856;2023-11-21T09:41:51;11.65;;;4.63;;
52838;SDS011;39219;53.678;9.856;2023-11-21T09:44:22;9.23;;;4.72;;
52838;SDS011;39219;53.678;9.856;2023-11-21T09:46:50;8.65;;;4.32;;
52838;SDS011;39219;53.678;9.856;2023-11-21T09:49:21;9.65;;;4.65;;
52838;SDS011;39219;53.678;9.856;2023-11-21T09:51:50;12.95;;;4.80;;
52838;SDS011;39219;53.678;9.856;2023-11-21T09:54:18;9.20;;;4.65;;
52838;SDS011;39219;53.678;9.856;2023-11-21T09:56:46;9.25;;;5.00;;
52838;SDS011;39219;53.678;9.856;2023-11-21T09:59:13;8.32;;;4.38;;
52838;SDS011;39219;53.678;9.856;2023-11-21T10:01:40;9.07;;;4.38;;
52838;SDS011;39219;53.678;9.856;2023-11-21T10:04:07;6.07;;;3.70;;
52838;SDS011;39219;53.678;9.856;2023-11-21T10:06:38;7.57;;;3.80;;
52838;SDS011;39219;53.678;9.856;2023-11-21T10:09:04;8.05;;;4.07;;
52838;SDS011;39219;53.678;9.856;2023-11-21T10:11:36;7.15;;;4.10;;
52838;SDS011;39219;53.678;9.856;2023-11-21T10:14:04;4.97;;;3.10;;
52838;SDS011;39219;53.678;9.856;2023-11-21T10:16:30;4.63;;;2.78;;
52838;SDS011;39219;53.678;9.856;2023-11-21T10:18:57;4.47;;;2.60;;
52838;SDS011;39219;53.678;9.856;2023-11-21T10:21:24;4.00;;;2.63;;
52838;SDS011;39219;53.678;9.856;2023-11-21T10:23:52;4.13;;;2.50;;
52838;SDS011;39219;53.678;9.856;2023-11-21T10:26:19;5.00;;;2.70;;
52838;SDS011;39219;53.678;9.856;2023-11-21T10:28:55;4.03;;;2.55;;
52838;SDS011;39219;53.678;9.856;2023-11-21T10:31:21;3.35;;;2.38;;
52838;SDS011;39219;53.678;9.856;2023-11-21T10:33:49;4.53;;;2.63;;
52838;SDS011;39219;53.678;9.856;2023-11-21T10:36:19;3.88;;;2.60;;
52838;SDS011;39219;53.678;9.856;2023-11-21T10:38:50;4.70;;;2.58;;
52838;SDS011;39219;53.678;9.856;2023-11-21T10:41:19;4.30;;;2.22;;
52838;SDS011;39219;53.678;9.856;2023-11-21T10:43:45;4.38;;;2.58;;
52838;SDS011;39219;53.678;9.856;2023-11-21T10:46:12;3.58;;;2.40;;
52838;SDS011;39219;53.678;9.856;2023-11-21T10:48:40;4.60;;;2.72;;
52838;SDS011;39219;53.678;9.856;2023-11-21T10:51:07;5.20;;;2.80;;
52838;SDS011;39219;53.678;9.856;2023-11-21T10:53:36;5.80;;;2.70;;
52838;SDS011;39219;53.678;9.856;2023-11-21T10:56:05;5.22;;;2.53;;
52838;SDS011;39219;53.678;9.856;2023-11-21T10:58:33;4.05;;;2.50;;
52838;SDS011;39219;53.678;9.856;2023-11-21T11:01:01;5.68;;;3.10;;
52838;SDS011;39219;53.678;9.856;2023-11-21T11:03:29;4.55;;;2.85;;
52838;SDS011;39219;53.678;9.856;2023-11-21T11:05:55;6.85;;;3.00;;
52838;SDS011;39219;53.678;9.856;2023-11-21T11:08:22;5.03;;;2.80;;
52838;SDS011;39219;53.678;9.856;2023-11-21T11:10:51;3.58;;;2.70;;
52838;SDS011;39219;53.678;9.856;2023-11-21T11:13:18;6.88;;;3.20;;
52838;SDS011;39219;53.678;9.856;2023-11-21T11:15:45;6.45;;;3.33;;
52838;SDS011;39219;53.678;9.856;2023-11-21T11:18:13;6.20;;;3.05;;
52838;SDS011;39219;53.678;9.856;2023-11-21T11:20:40;4.28;;;3.17;;
52838;SDS011;39219;53.678;9.856;2023-11-21T11:23:11;6.15;;;3.45;;
52838;SDS011;39219;53.678;9.856;2023-11-21T11:25:47;6.15;;;3.10;;
52838;SDS011;39219;53.678;9.856;2023-11-21T11:28:19;5.40;;;3.38;;
52838;SDS011;39219;53.678;9.856;2023-11-21T11:30:50;6.03;;;3.30;;
52838;SDS011;39219;53.678;9.856;2023-11-21T11:33:21;6.97;;;3.00;;
52838;SDS011;39219;53.678;9.856;2023-11-21T11:35:52;5.15;;;3.15;;
52838;SDS011;39219;53.678;9.856;2023-11-21T11:38:20;5.15;;;2.83;;
52838;SDS011;39219;53.678;9.856;2023-11-21T11:40:47;7.40;;;2.95;;
52838;SDS011;39219;53.678;9.856;2023-11-21T11:43:13;4.47;;;2.95;;
52838;SDS011;39219;53.678;9.856;2023-11-21T11:45:52;5.97;;;3.17;;
52838;SDS011;39219;53.678;9.856;2023-11-21T11:48:21;4.70;;;3.00;;
52838;SDS011;39219;53.678;9.856;2023-11-21T11:51:03;4.88;;;2.70;;
52838;SDS011;39219;53.678;9.856;2023-11-21T11:53:33;4.40;;;2.60;;
52838;SDS011;39219;53.678;9.856;2023-11-21T11:58:42;4.00;;;2.60;;
52838;SDS011;39219;53.678;9.856;2023-11-21T12:01:09;5.85;;;2.97;;
52838;SDS011;39219;53.678;9.856;2023-11-21T12:03:37;4.40;;;2.80;;
52838;SDS011;39219;53.678;9.856;2023-11-21T12:06:04;4.82;;;2.80;;
52838;SDS011;39219;53.678;9.856;2023-11-21T12:08:31;5.07;;;3.00;;
52838;SDS011;39219;53.678;9.856;2023-11-21T12:10:58;4.43;;;2.83;;
52838;SDS011;39219;53.678;9.856;2023-11-21T12:13:24;6.28;;;3.05;;
52838;SDS011;39219;53.678;9.856;2023-11-21T12:15:50;4.68;;;2.92;;
52838;SDS011;39219;53.678;9.856;2023-11-21T12:18:18;4.18;;;2.60;;
52838;SDS011;39219;53.678;9.856;2023-11-21T12:20:45;5.05;;;3.13;;
52838;SDS011;39219;53.678;9.856;2023-11-21T12:23:13;5.10;;;2.95;;
52838;SDS011;39219;53.678;9.856;2023-11-21T12:25:40;4.85;;;2.70;;
52838;SDS011;39219;53.678;9.856;2023-11-21T12:28:07;4.65;;;2.58;;
52838;SDS011;39219;53.678;9.856;2023-11-21T12:30:33;4.35;;;2.78;;
52838;SDS011;39219;53.678;9.856;2023-11-21T12:33:01;5.80;;;2.75;;
52838;SDS011;39219;53.678;9.856;2023-11-21T12:35:31;5.18;;;2.83;;
52838;SDS011;39219;53.678;9.856;2023-11-21T12:37:59;4.55;;;2.72;;
52838;SDS011;39219;53.678;9.856;2023-11-21T12:40:25;5.13;;;2.85;;
52838;SDS011;39219;53.678;9.856;2023-11-21T12:42:53;5.43;;;2.70;;
52838;SDS011;39219;53.678;9.856;2023-11-21T12:45:20;4.38;;;2.78;;
52838;SDS011;39219;53.678;9.856;2023-11-21T12:47:47;4.55;;;3.05;;
52838;SDS011;39219;53.678;9.856;2023-11-21T12:50:13;5.80;;;3.35;;
52838;SDS011;39219;53.678;9.856;2023-11-21T12:52:44;5.32;;;2.88;;
52838;SDS011;39219;53.678;9.856;2023-11-21T12:55:15;5.95;;;3.25;;
52838;SDS011;39219;53.678;9.856;2023-11-21T12:57:43;5.72;;;3.03;;
52838;SDS011;39219;53.678;9.856;2023-11-21T13:00:09;8.27;;;3.50;;
52838;SDS011;39219;53.678;9.856;2023-11-21T13:02:40;7.78;;;3.42;;
52838;SDS011;39219;53.678;9.856;2023-11-21T13:05:07;5.65;;;3.25;;
52838;SDS011;39219;53.678;9.856;2023-11-21T13:07:48;5.45;;;3.15;;
52838;SDS011;39219;53.678;9.856;2023-11-21T13:10:15;5.07;;;2.92;;
52838;SDS011;39219;53.678;9.856;2023-11-21T13:12:42;4.53;;;2.80;;
52838;SDS011;39219;53.678;9.856;2023-11-21T13:15:09;5.72;;;3.20;;
52838;SDS011;39219;53.678;9.856;2023-11-21T13:17:36;5.70;;;3.20;;
52838;SDS011;39219;53.678;9.856;2023-11-21T13:20:02;5.05;;;3.00;;
52838;SDS011;39219;53.678;9.856;2023-11-21T13:22:31;5.43;;;3.05;;
52838;SDS011;39219;53.678;9.856;2023-11-21T13:24:59;8.23;;;3.28;;
52838;SDS011;39219;53.678;9.856;2023-11-21T13:27:32;7.03;;;3.27;;
52838;SDS011;39219;53.678;9.856;2023-11-21T13:29:59;6.00;;;3.17;;
52838;SDS011;39219;53.678;9.856;2023-11-21T13:32:25;5.40;;;3.40;;
52838;SDS011;39219;53.678;9.856;2023-11-21T13:34:51;6.30;;;3.25;;
52838;SDS011;39219;53.678;9.856;2023-11-21T13:37:19;5.35;;;3.30;;
52838;SDS011;39219;53.678;9.856;2023-11-21T13:39:45;6.28;;;3.80;;
52838;SDS011;39219;53.678;9.856;2023-11-21T13:42:16;8.07;;;3.63;;
52838;SDS011;39219;53.678;9.856;2023-11-21T13:44:42;7.18;;;3.45;;
52838;SDS011;39219;53.678;9.856;2023-11-21T13:47:11;6.78;;;3.50;;
52838;SDS011;39219;53.678;9.856;2023-11-21T13:49:38;6.18;;;3.47;;
52838;SDS011;39219;53.678;9.856;2023-11-21T13:52:06;6.90;;;3.72;;
52838;SDS011;39219;53.678;9.856;2023-11-21T13:54:32;7.63;;;3.50;;
52838;SDS011;39219;53.678;9.856;2023-11-21T13:56:58;7.50;;;3.80;;
52838;SDS011;39219;53.678;9.856;2023-11-21T13:59:26;7.82;;;3.83;;
52838;SDS011;39219;53.678;9.856;2023-11-21T14:01:55;7.28;;;3.75;;
52838;SDS011;39219;53.678;9.856;2023-11-21T14:04:21;7.13;;;3.97;;
52838;SDS011;39219;53.678;9.856;2023-11-21T14:07:00;7.47;;;3.90;;
52838;SDS011;39219;53.678;9.856;2023-11-21T14:09:42;8.35;;;4.10;;
52838;SDS011;39219;53.678;9.856;2023-11-21T14:12:09;7.82;;;3.80;;
52838;SDS011;39219;53.678;9.856;2023-11-21T14:14:39;6.93;;;3.75;;
52838;SDS011;39219;53.678;9.856;2023-11-21T14:17:05;6.40;;;3.55;;
52838;SDS011;39219;53.678;9.856;2023-11-21T14:19:32;8.10;;;4.35;;
52838;SDS011;39219;53.678;9.856;2023-11-21T14:21:59;7.85;;;3.85;;
52838;SDS011;39219;53.678;9.856;2023-11-21T14:24:26;5.65;;;3.40;;
52838;SDS011;39219;53.678;9.856;2023-11-21T14:26:54;7.03;;;3.25;;
52838;SDS011;39219;53.678;9.856;2023-11-21T14:29:20;5.47;;;2.92;;
52838;SDS011;39219;53.678;9.856;2023-11-21T14:31:49;5.18;;;3.08;;
52838;SDS011;39219;53.678;9.856;2023-11-21T14:34:18;6.28;;;2.95;;
52838;SDS011;39219;53.678;9.856;2023-11-21T14:36:44;6.32;;;3.33;;
52838;SDS011;39219;53.678;9.856;2023-11-21T14:39:10;6.05;;;2.85;;
52838;SDS011;39219;53.678;9.856;2023-11-21T14:41:47;5.88;;;3.08;;